YAS weather

Yasawa Island Airport
Yasawa Island, Western, Fiji

Public forecast

Using degrees Celsius for public forecast. Weather courtesy of forecast.io.

METAR (pilot weather report)

Closest report is Nadi International Airport, 60.1 nm (111.3 km) S. Retrieved 2019/09/23 08:00 UTC (22 minutes ago):

NFFN 230800Z 18003KT 9999 FEW030 20/13 Q1019 NOSIG

TAF (pilot weather forecast)

Closest forecast is Nadi International Airport, 60.1 nm (111.3 km) S. Retrieved 2019/09/23 06:00 UTC (2 hours ago):

TAF NFFN 230506Z 2306/2406 12012KT 9999 SCT030